Time;durP1;ratioP1;P1;durP2;ratioP2;P2;SDS_P1;SDS_P2;PMS_P1;PMS_P2;Temp;Humidity;BMP_temperature;BMP_pressure;BME280_temperature;BME280_humidity;BME280_pressure;Samples;Min_cycle;Max_cycle;Signal;HPM_P1;HPM_P2
2021/10/13 00:01:13;;;;;;;9.75;3.30;;;;;;;6.54;100.00;100878.97;4992377;28;20760;-52
2021/10/13 00:03:40;;;;;;;7.03;3.40;;;;;;;6.49;100.00;100883.44;4981274;28;20318;-59
2021/10/13 00:06:06;;;;;;;7.35;3.60;;;;;;;6.51;100.00;100879.88;4989407;28;20043;-52
2021/10/13 00:08:33;;;;;;;8.15;3.95;;;;;;;6.50;100.00;100878.16;4987261;28;20046;-54
2021/10/13 00:10:59;;;;;;;8.15;3.80;;;;;;;6.49;100.00;100881.69;4995068;28;20744;-54
2021/10/13 00:13:26;;;;;;;9.40;3.70;;;;;;;6.46;100.00;100886.13;4998296;28;20046;-53
2021/10/13 00:15:52;;;;;;;6.68;3.67;;;;;;;6.41;100.00;100888.91;4992241;28;20072;-52
2021/10/13 00:18:19;;;;;;;7.35;3.88;;;;;;;6.33;100.00;100894.31;4984745;28;20836;-51
2021/10/13 00:20:46;;;;;;;5.95;3.65;;;;;;;6.40;100.00;100910.84;4987417;28;20065;-51
2021/10/13 00:23:12;;;;;;;8.68;4.28;;;;;;;6.22;100.00;100883.16;4992518;28;20050;-52
2021/10/13 00:25:39;;;;;;;8.70;4.43;;;;;;;6.37;100.00;100913.53;4995155;28;20058;-52
2021/10/13 00:28:05;;;;;;;9.60;4.45;;;;;;;6.27;100.00;100897.09;4989550;28;20907;-53
2021/10/13 00:30:32;;;;;;;11.57;4.82;;;;;;;6.38;100.00;100922.28;4997309;28;20415;-53
2021/10/13 00:32:59;;;;;;;9.50;4.80;;;;;;;6.38;100.00;100915.25;4990397;28;20081;-52
2021/10/13 00:35:25;;;;;;;7.82;4.85;;;;;;;6.37;100.00;100912.66;4991953;28;20069;-52
2021/10/13 00:37:52;;;;;;;8.57;4.55;;;;;;;6.37;100.00;100918.78;4988073;28;20053;-53
2021/10/13 00:40:19;;;;;;;6.63;4.25;;;;;;;6.36;100.00;100921.44;4995358;28;20526;-51
2021/10/13 00:42:45;;;;;;;9.50;5.50;;;;;;;6.33;100.00;100919.75;4992734;28;20414;-51
2021/10/13 00:45:12;;;;;;;8.38;4.72;;;;;;;6.30;100.00;100923.28;4985945;28;20059;-52
2021/10/13 00:47:38;;;;;;;8.85;5.05;;;;;;;6.29;100.00;100926.84;4980584;28;20050;-54
2021/10/13 00:50:10;;;;;;;8.90;5.07;;;;;;;6.27;100.00;100936.53;4999792;28;20056;-54
2021/10/13 00:52:41;;;;;;;7.03;4.72;;;;;;;6.22;100.00;100935.75;5003207;28;20399;-52
2021/10/13 00:55:17;;;;;;;9.77;4.78;;;;;;;6.14;100.00;100942.09;4993459;28;20049;-53
2021/10/13 00:57:45;;;;;;;8.40;4.82;;;;;;;6.12;100.00;100943.88;4988414;28;20047;-52
2021/10/13 01:00:12;;;;;;;9.18;5.38;;;;;;;6.14;100.00;100942.09;4992870;28;20487;-53
2021/10/13 01:02:51;;;;;;;9.57;5.03;;;;;;;6.18;100.00;100952.50;4990604;28;20046;-52
2021/10/13 01:05:37;;;;;;;12.65;5.93;;;;;;;6.21;100.00;100951.56;5000921;28;20042;-52
2021/10/13 01:08:15;;;;;;;8.48;5.68;;;;;;;6.20;100.00;100965.59;4990578;28;20771;-52
2021/10/13 01:11:03;;;;;;;10.73;5.80;;;;;;;6.15;100.00;100962.19;4993242;28;20053;-51
2021/10/13 01:13:50;;;;;;;12.65;6.18;;;;;;;6.16;100.00;100962.16;4994215;28;20041;-51
2021/10/13 01:16:43;;;;;;;9.32;5.72;;;;;;;6.14;100.00;100963.13;4988771;28;20050;-53
2021/10/13 01:19:27;;;;;;;8.48;5.43;;;;;;;6.13;100.00;100974.53;4994608;28;20053;-52
2021/10/13 01:22:28;;;;;;;8.25;4.72;;;;;;;6.05;100.00;100977.28;4991808;28;20054;-53
2021/10/13 01:25:21;;;;;;;10.57;4.90;;;;;;;5.99;100.00;100975.63;4985892;28;20050;-52
2021/10/13 01:28:17;;;;;;;9.68;4.50;;;;;;;5.96;100.00;100975.72;4981979;28;20046;-51
2021/10/13 01:30:51;;;;;;;6.03;4.38;;;;;;;5.94;100.00;100969.63;4996836;28;20057;-54
2021/10/13 01:33:24;;;;;;;6.85;5.10;;;;;;;5.98;100.00;100966.00;4991878;28;20066;-52
2021/10/13 01:35:55;;;;;;;8.35;4.88;;;;;;;6.03;100.00;100965.06;4996664;28;20058;-54
2021/10/13 01:38:25;;;;;;;8.15;4.63;;;;;;;6.09;100.00;100973.72;4981674;28;20076;-52
2021/10/13 01:40:56;;;;;;;9.38;5.22;;;;;;;6.13;100.00;100978.03;4990959;28;20062;-53
2021/10/13 01:43:24;;;;;;;9.25;4.85;;;;;;;6.17;100.00;100978.81;4993088;28;20057;-55
2021/10/13 01:45:54;;;;;;;8.15;5.15;;;;;;;6.25;100.00;100971.66;4994190;28;20395;-52
2021/10/13 01:48:21;;;;;;;11.00;5.57;;;;;;;6.25;100.00;100969.88;4984505;28;20052;-53
2021/10/13 01:50:50;;;;;;;9.48;6.00;;;;;;;6.43;100.00;100970.41;4984531;28;20038;-52
2021/10/13 01:53:21;;;;;;;11.75;6.10;;;;;;;6.54;100.00;100978.94;4986934;28;20492;-53
2021/10/13 01:55:50;;;;;;;10.80;6.28;;;;;;;6.63;100.00;100984.00;4985430;28;20108;-52
2021/10/13 01:58:17;;;;;;;11.93;6.50;;;;;;;6.65;100.00;100982.19;4986377;28;20489;-54
2021/10/13 02:00:47;;;;;;;11.05;5.97;;;;;;;6.71;100.00;100981.22;4990654;28;20048;-51
2021/10/13 02:03:18;;;;;;;12.10;6.97;;;;;;;6.74;100.00;100989.03;4987291;28;20049;-52
2021/10/13 02:05:48;;;;;;;14.18;7.00;;;;;;;6.77;100.00;100984.56;4989155;28;20414;-52
2021/10/13 02:08:16;;;;;;;18.73;7.53;;;;;;;6.77;100.00;100981.09;4986533;28;20046;-53
2021/10/13 02:10:46;;;;;;;12.13;7.70;;;;;;;6.80;100.00;100967.84;4997394;28;20053;-55
2021/10/13 02:13:15;;;;;;;11.20;6.97;;;;;;;6.79;100.00;100968.72;4985314;28;20527;-52
2021/10/13 02:15:43;;;;;;;10.98;6.72;;;;;;;6.87;100.00;100972.06;4986784;28;20058;-53
2021/10/13 02:18:14;;;;;;;13.82;6.90;;;;;;;6.91;100.00;100973.75;4980579;28;20415;-52
2021/10/13 02:20:42;;;;;;;16.30;7.40;;;;;;;6.95;100.00;100970.97;4984501;28;20046;-53
2021/10/13 02:23:11;;;;;;;14.18;7.55;;;;;;;6.88;100.00;100955.38;4986797;28;20670;-52
2021/10/13 02:25:40;;;;;;;11.07;6.50;;;;;;;7.01;100.00;100980.53;5001320;28;20064;-52
2021/10/13 02:28:14;;;;;;;11.77;7.20;;;;;;;7.02;100.00;100983.13;4991753;28;20093;-53
2021/10/13 02:30:40;;;;;;;13.32;7.10;;;;;;;7.03;100.00;100984.84;5001114;28;20126;-52
2021/10/13 02:33:07;;;;;;;13.85;6.63;;;;;;;7.06;100.00;100989.19;4998142;28;20037;-53
2021/10/13 02:35:34;;;;;;;12.10;7.20;;;;;;;7.07;100.00;100990.06;4991678;28;20050;-54
2021/10/13 02:38:00;;;;;;;10.13;6.18;;;;;;;7.08;100.00;100992.66;4988408;28;20082;-54
2021/10/13 02:40:27;;;;;;;12.45;6.70;;;;;;;7.07;100.00;100990.06;4983700;28;20072;-50
2021/10/13 02:42:53;;;;;;;13.43;6.82;;;;;;;6.94;100.00;100978.91;4995018;28;20054;-51
2021/10/13 02:45:20;;;;;;;10.73;6.88;;;;;;;7.06;100.00;100996.22;4989496;28;20049;-52
2021/10/13 02:47:52;;;;;;;9.70;6.63;;;;;;;7.09;100.00;100993.50;4982093;28;20065;-52
2021/10/13 02:50:19;;;;;;;11.38;6.65;;;;;;;7.09;100.00;100988.22;4983016;28;20049;-55
2021/10/13 02:53:15;;;;;;;12.27;7.03;;;;;;;7.05;100.00;100992.72;4983910;28;20537;-52
2021/10/13 02:55:52;;;;;;;9.27;6.85;;;;;;;7.12;100.00;100999.56;4992720;28;20039;-52
2021/10/13 02:58:30;;;;;;;9.93;6.40;;;;;;;7.15;100.00;100990.72;4993630;28;20053;-53
2021/10/13 03:01:01;;;;;;;11.85;7.28;;;;;;;7.16;100.00;100993.34;4999261;28;20522;-54
2021/10/13 03:03:53;;;;;;;12.48;6.60;;;;;;;7.21;100.00;100993.22;4986732;28;20759;-53
2021/10/13 03:06:21;;;;;;;11.63;6.82;;;;;;;7.24;100.00;100994.00;4995834;28;20061;-53
2021/10/13 03:08:51;;;;;;;9.32;5.78;;;;;;;7.24;100.00;100998.44;4985280;28;20423;-53
2021/10/13 03:11:21;;;;;;;9.13;6.13;;;;;;;7.27;100.00;100999.19;4993801;28;20046;-54
2021/10/13 03:13:51;;;;;;;8.98;5.78;;;;;;;7.27;100.00;101003.59;4993484;28;20069;-52
2021/10/13 03:16:19;;;;;;;10.65;5.32;;;;;;;7.23;100.00;101005.47;4984996;28;20048;-52
2021/10/13 03:18:47;;;;;;;12.68;6.70;;;;;;;7.20;100.00;101000.28;4980525;28;20057;-52
2021/10/13 03:21:15;;;;;;;13.13;6.50;;;;;;;7.19;100.00;101011.72;4983535;28;20077;-51
2021/10/13 03:23:42;;;;;;;8.50;6.15;;;;;;;7.22;100.00;101016.91;4990397;28;20058;-52
2021/10/13 03:26:13;;;;;;;8.88;6.70;;;;;;;7.25;100.00;101015.94;4999453;28;20120;-52
2021/10/13 03:28:41;;;;;;;12.70;6.75;;;;;;;7.28;100.00;101015.88;4982628;28;20081;-53
2021/10/13 03:31:08;;;;;;;9.98;6.63;;;;;;;7.30;100.00;101020.22;4985857;28;20395;-53
2021/10/13 03:33:38;;;;;;;9.85;6.50;;;;;;;7.34;100.00;101021.88;4985245;28;20057;-53
2021/10/13 03:36:08;;;;;;;10.80;6.75;;;;;;;7.36;100.00;101016.56;4992186;28;20053;-53
2021/10/13 03:38:34;;;;;;;10.47;6.60;;;;;;;7.27;100.00;101007.09;4994624;28;20054;-52
2021/10/13 03:41:01;;;;;;;11.23;6.80;;;;;;;7.38;100.00;101025.31;4990085;28;20050;-51
2021/10/13 03:43:28;;;;;;;10.93;6.55;;;;;;;7.38;100.00;101033.22;4984664;28;20057;-52
2021/10/13 03:45:54;;;;;;;10.93;6.85;;;;;;;7.42;100.00;101034.00;4981313;28;20675;-52
2021/10/13 03:48:21;;;;;;;9.80;6.50;;;;;;;7.45;100.00;101039.19;4982095;28;20069;-52
2021/10/13 03:50:47;;;;;;;9.88;5.57;;;;;;;7.47;100.00;101055.84;4986375;28;20060;-53
2021/10/13 03:53:14;;;;;;;12.75;6.55;;;;;;;7.50;100.00;101058.41;4986846;28;20047;-52
2021/10/13 03:55:40;;;;;;;9.07;5.60;;;;;;;7.50;100.00;101059.28;5003350;28;20050;-52
2021/10/13 03:58:07;;;;;;;9.18;6.18;;;;;;;7.52;100.00;101068.00;4986475;28;20053;-52
2021/10/13 04:00:34;;;;;;;10.10;6.00;;;;;;;7.55;100.00;101067.06;4981549;28;20064;-52
2021/10/13 04:03:01;;;;;;;9.55;6.07;;;;;;;7.54;100.00;101068.84;4986351;28;20129;-52
2021/10/13 04:05:27;;;;;;;8.55;5.68;;;;;;;7.57;100.00;101065.25;4988307;28;20153;-52
2021/10/13 04:07:54;;;;;;;8.48;6.07;;;;;;;7.62;100.00;101069.50;4987538;28;20064;-53
2021/10/13 04:10:20;;;;;;;11.30;6.47;;;;;;;7.62;100.00;101085.31;4980747;28;20052;-53
2021/10/13 04:12:47;;;;;;;11.48;6.10;;;;;;;7.57;100.00;101075.78;4982713;28;20058;-53
2021/10/13 04:15:14;;;;;;;9.82;6.47;;;;;;;7.51;100.00;101075.94;4988549;28;20606;-53
2021/10/13 04:17:41;;;;;;;10.80;6.65;;;;;;;7.49;100.00;101077.75;4995657;28;20501;-52
2021/10/13 04:20:11;;;;;;;9.15;5.90;;;;;;;7.45;100.00;101076.09;4979947;28;20057;-52
2021/10/13 04:22:38;;;;;;;9.23;6.30;;;;;;;7.33;100.00;101051.75;4986313;28;20042;-54
2021/10/13 04:25:05;;;;;;;8.35;6.28;;;;;;;7.44;100.00;101080.50;4994464;28;20070;-53
2021/10/13 04:27:31;;;;;;;11.18;6.28;;;;;;;7.44;100.00;101084.88;4998444;28;20415;-52
2021/10/13 04:29:58;;;;;;;8.50;6.45;;;;;;;7.32;100.00;101064.97;4989670;28;20407;-52
2021/10/13 04:32:24;;;;;;;9.70;6.97;;;;;;;7.43;100.00;101077.88;4989296;28;20057;-53
2021/10/13 04:34:51;;;;;;;11.23;7.13;;;;;;;7.43;100.00;101086.66;4991280;28;20058;-52
2021/10/13 04:37:18;;;;;;;9.85;6.88;;;;;;;7.46;100.00;101091.00;4998407;28;20425;-53
2021/10/13 04:39:44;;;;;;;9.98;6.20;;;;;;;7.48;100.00;101086.56;4994480;28;20050;-52
2021/10/13 04:42:11;;;;;;;11.38;6.43;;;;;;;7.47;100.00;101080.41;4990721;28;20833;-53
2021/10/13 04:44:38;;;;;;;12.68;7.95;;;;;;;7.47;100.00;101085.69;4991651;28;20050;-52
2021/10/13 04:47:05;;;;;;;14.48;8.73;;;;;;;7.46;100.00;101088.34;4990190;28;20042;-52
2021/10/13 04:49:32;;;;;;;15.75;9.20;;;;;;;7.45;100.00;101086.63;4982801;28;20042;-51
2021/10/13 04:51:58;;;;;;;13.60;8.63;;;;;;;7.44;100.00;101085.75;4990732;28;21345;-55
2021/10/13 04:54:25;;;;;;;13.63;8.88;;;;;;;7.43;100.00;101098.97;4991013;28;20746;-52
2021/10/13 04:56:51;;;;;;;14.15;8.48;;;;;;;7.44;100.00;101096.28;4997861;28;20069;-53
2021/10/13 04:59:18;;;;;;;17.83;10.75;;;;;;;7.48;100.00;101102.38;4988518;28;20038;-52
2021/10/13 05:01:44;;;;;;;14.90;9.60;;;;;;;7.49;100.00;101101.47;4986033;28;20061;-52
2021/10/13 05:04:14;;;;;;;14.27;9.65;;;;;;;7.52;100.00;101110.19;4997965;28;20554;-53
2021/10/13 05:06:43;;;;;;;16.50;9.73;;;;;;;7.54;100.00;101103.09;4989847;28;20043;-51
2021/10/13 05:09:10;;;;;;;14.57;8.95;;;;;;;7.55;100.00;101106.63;4987151;28;20046;-51
2021/10/13 05:11:37;;;;;;;15.85;9.57;;;;;;;7.54;100.00;101104.88;4990838;28;20076;-53
2021/10/13 05:14:04;;;;;;;13.95;8.98;;;;;;;7.54;100.00;101107.50;4998088;28;20054;-51
2021/10/13 05:16:30;;;;;;;12.07;8.38;;;;;;;7.54;100.00;101113.66;4998828;28;20898;-53
2021/10/13 05:18:57;;;;;;;12.85;8.70;;;;;;;7.55;100.00;101114.53;4984084;28;20050;-54
2021/10/13 05:21:23;;;;;;;14.63;9.70;;;;;;;7.55;100.00;101112.75;4987039;28;20045;-53
2021/10/13 05:23:50;;;;;;;16.38;9.85;;;;;;;7.59;100.00;101113.53;4989141;28;20042;-52
2021/10/13 05:26:17;;;;;;;14.10;9.35;;;;;;;7.62;100.00;101118.72;4990946;28;20050;-53
2021/10/13 05:28:43;;;;;;;17.70;9.27;;;;;;;7.63;100.00;101133.66;4988709;28;20788;-53
2021/10/13 05:31:10;;;;;;;14.77;9.63;;;;;;;7.65;100.00;101134.47;4988544;28;20049;-52
2021/10/13 05:33:36;;;;;;;13.95;9.27;;;;;;;7.66;100.00;101139.72;4986541;28;20058;-51
2021/10/13 05:36:03;;;;;;;15.02;9.95;;;;;;;7.66;100.00;101133.56;4986168;28;20514;-53
2021/10/13 05:38:49;;;;;;;15.73;9.65;;;;;;;7.69;100.00;101141.41;4983259;28;20058;-52
2021/10/13 05:41:16;;;;;;;14.40;9.50;;;;;;;7.69;100.00;101139.66;4984115;28;20050;-53
2021/10/13 05:43:42;;;;;;;19.63;10.48;;;;;;;7.54;100.00;101124.19;4999096;28;20148;-53
2021/10/13 05:46:09;;;;;;;16.23;9.52;;;;;;;7.66;100.00;101147.63;4988849;28;20050;-52
2021/10/13 05:48:36;;;;;;;20.30;9.88;;;;;;;7.67;100.00;101146.72;4988225;28;20057;-52
2021/10/13 05:51:02;;;;;;;15.13;10.25;;;;;;;7.64;100.00;101148.56;4986356;28;20049;-53
2021/10/13 05:53:29;;;;;;;13.25;9.35;;;;;;;7.56;100.00;101132.03;4992764;28;20417;-52
2021/10/13 05:55:56;;;;;;;21.02;11.05;;;;;;;7.70;100.00;101153.69;4992481;28;20072;-52
2021/10/13 05:58:24;;;;;;;18.90;10.00;;;;;;;7.77;100.00;101152.63;4986491;28;20162;-53
2021/10/13 06:00:53;;;;;;;18.65;10.35;;;;;;;7.82;100.00;101155.19;4982903;28;20401;-52
2021/10/13 06:03:20;;;;;;;16.45;10.15;;;;;;;7.89;100.00;101156.75;4997011;28;20584;-53
2021/10/13 06:05:48;;;;;;;19.88;11.82;;;;;;;7.99;100.00;101159.16;4994258;28;20046;-52
2021/10/13 06:08:16;;;;;;;18.15;11.75;;;;;;;7.99;100.00;101166.19;4984060;28;20522;-53
2021/10/13 06:10:42;;;;;;;22.60;12.77;;;;;;;7.99;100.00;101164.44;4982176;28;20515;-52
2021/10/13 06:13:09;;;;;;;23.60;13.30;;;;;;;8.02;100.00;101168.75;4995114;28;20135;-53
2021/10/13 06:15:36;;;;;;;21.88;13.95;;;;;;;8.04;100.00;101165.16;4987058;28;20077;-52
2021/10/13 06:18:09;;;;;;;26.75;14.90;;;;;;;8.09;100.00;101168.56;4982279;28;20073;-53
2021/10/13 06:20:36;;;;;;;24.38;14.95;;;;;;;8.11;100.00;101168.53;4988556;28;20053;-53
2021/10/13 06:23:03;;;;;;;26.10;15.00;;;;;;;8.19;98.80;101170.97;4993645;28;20046;-52
2021/10/13 06:25:30;;;;;;;23.58;14.38;;;;;;;8.12;98.82;101172.03;4984300;28;20530;-53
2021/10/13 06:27:57;;;;;;;23.90;14.45;;;;;;;8.13;99.61;101171.13;4996718;28;20042;-52
2021/10/13 06:30:23;;;;;;;24.42;14.85;;;;;;;8.12;99.63;101172.91;4984099;28;20050;-53
2021/10/13 06:32:50;;;;;;;24.17;14.05;;;;;;;8.15;100.00;101172.84;4982922;28;20042;-52
2021/10/13 06:35:16;;;;;;;22.40;14.63;;;;;;;8.19;100.00;101173.59;4982885;28;20046;-54
2021/10/13 06:37:43;;;;;;;26.55;15.77;;;;;;;8.28;100.00;101181.31;4983295;28;20057;-52
2021/10/13 06:40:09;;;;;;;23.73;13.55;;;;;;;8.33;100.00;101182.09;4981045;28;20050;-52
2021/10/13 06:42:36;;;;;;;26.55;15.27;;;;;;;8.39;100.00;101187.19;4992688;28;20065;-51
2021/10/13 06:45:03;;;;;;;26.48;15.27;;;;;;;8.41;100.00;101183.63;4991728;28;20061;-53
2021/10/13 06:47:29;;;;;;;26.92;15.18;;;;;;;8.45;99.70;101181.78;4986514;28;20053;-52
2021/10/13 06:49:55;;;;;;;27.23;15.77;;;;;;;8.43;98.88;101180.94;4983892;28;20057;-52
2021/10/13 06:52:22;;;;;;;25.75;15.18;;;;;;;8.48;98.93;101197.53;4991397;28;20046;-52
2021/10/13 06:54:48;;;;;;;22.92;14.25;;;;;;;8.50;98.05;101203.63;4993583;28;20515;-54
2021/10/13 06:57:15;;;;;;;22.20;14.95;;;;;;;8.54;97.77;101200.00;5000343;28;20056;-53
2021/10/13 06:59:41;;;;;;;26.27;14.98;;;;;;;8.59;96.83;101207.81;4995377;28;20050;-55
2021/10/13 07:02:08;;;;;;;21.83;13.57;;;;;;;8.59;97.20;101210.47;4988958;28;20057;-52
2021/10/13 07:04:35;;;;;;;21.20;13.88;;;;;;;8.62;97.43;101208.63;4997612;28;20046;-53
2021/10/13 07:07:01;;;;;;;21.95;13.35;;;;;;;8.63;97.40;101207.72;4994188;28;20038;-52
2021/10/13 07:09:28;;;;;;;22.95;15.10;;;;;;;8.64;97.36;101220.00;4984089;28;20046;-53
2021/10/13 07:11:54;;;;;;;23.80;14.07;;;;;;;8.64;97.05;101214.72;4983984;28;20056;-51
2021/10/13 07:14:21;;;;;;;27.17;15.88;;;;;;;8.70;97.00;101224.25;4997724;28;20050;-52
2021/10/13 07:16:47;;;;;;;24.92;15.30;;;;;;;8.79;95.77;101221.38;4989913;28;20061;-52
2021/10/13 07:19:14;;;;;;;26.25;15.13;;;;;;;8.87;95.05;101223.78;4987815;28;20042;-54
2021/10/13 07:21:40;;;;;;;24.88;15.32;;;;;;;8.89;95.00;101224.63;4979546;28;20042;-53
2021/10/13 07:24:07;;;;;;;27.08;15.88;;;;;;;8.89;95.23;101233.41;4990566;28;20054;-51
2021/10/13 07:26:35;;;;;;;24.73;15.77;;;;;;;8.89;95.02;101236.06;4989566;28;20054;-53
2021/10/13 07:29:02;;;;;;;23.83;16.05;;;;;;;8.91;94.85;101236.88;4986969;28;20065;-52
2021/10/13 07:31:29;;;;;;;25.67;15.77;;;;;;;8.84;94.95;101219.47;4984322;28;20052;-53
2021/10/13 07:33:56;;;;;;;22.58;15.57;;;;;;;8.95;94.85;101227.13;4989348;28;20053;-52
2021/10/13 07:36:23;;;;;;;27.73;16.80;;;;;;;9.01;93.89;101229.56;4987910;28;20048;-53
2021/10/13 07:38:49;;;;;;;30.25;17.27;;;;;;;9.10;93.84;101235.50;4989481;28;20046;-53
2021/10/13 07:41:16;;;;;;;27.60;17.15;;;;;;;9.27;93.56;101235.03;4988595;28;20056;-57
2021/10/13 07:43:43;;;;;;;27.52;16.23;;;;;;;9.49;92.75;101240.53;4999994;28;20049;-54
2021/10/13 07:46:12;;;;;;;25.38;15.68;;;;;;;9.68;91.38;101243.53;4989596;28;20412;-53
2021/10/13 07:48:39;;;;;;;29.52;16.95;;;;;;;9.91;90.20;101243.69;4986441;28;20100;-52
2021/10/13 07:51:05;;;;;;;25.33;16.30;;;;;;;10.05;89.12;101243.28;4984173;28;20515;-51
2021/10/13 07:53:32;;;;;;;23.73;15.65;;;;;;;10.09;88.13;101240.47;5000270;28;20046;-52
2021/10/13 07:55:58;;;;;;;137.25;75.80;;;;;;;10.13;87.02;101244.75;4994700;28;20410;-52
2021/10/13 07:58:25;;;;;;;27.05;16.38;;;;;;;10.14;86.78;101241.19;4990108;28;20050;-52
2021/10/13 08:00:51;;;;;;;51.97;18.77;;;;;;;10.19;86.74;101251.66;4983803;28;20045;-52
2021/10/13 08:03:22;;;;;;;27.80;15.00;;;;;;;10.30;85.29;101256.63;4985568;28;20403;-52
2021/10/13 08:05:51;;;;;;;17.80;11.10;;;;;;;10.33;82.09;101264.47;4985919;28;20039;-53
2021/10/13 08:08:17;;;;;;;21.17;12.27;;;;;;;10.23;83.01;101253.28;4998080;28;20410;-52
2021/10/13 08:10:44;;;;;;;19.15;10.80;;;;;;;10.30;82.49;101261.91;4987659;28;20042;-52
2021/10/13 08:13:10;;;;;;;19.13;11.57;;;;;;;10.26;81.81;101266.44;4989030;28;20472;-59
2021/10/13 08:15:37;;;;;;;20.75;11.68;;;;;;;10.22;82.71;101263.94;4996220;28;20165;-56
2021/10/13 08:18:04;;;;;;;25.02;13.90;;;;;;;10.15;83.15;101263.22;4984004;28;20068;-53
2021/10/13 08:20:30;;;;;;;18.67;10.48;;;;;;;10.21;83.47;101275.44;4991347;28;20420;-56
2021/10/13 08:22:57;;;;;;;19.35;11.75;;;;;;;10.17;83.41;101259.63;4995033;28;20475;-52
2021/10/13 08:25:23;;;;;;;21.00;12.98;;;;;;;10.31;83.90;101274.22;4994814;28;20444;-52
2021/10/13 08:27:50;;;;;;;23.23;13.52;;;;;;;10.35;83.51;101276.75;4990015;28;20046;-52
2021/10/13 08:30:16;;;;;;;17.40;12.13;;;;;;;10.38;84.02;101279.28;4986292;28;20057;-52
2021/10/13 08:32:43;;;;;;;18.27;11.60;;;;;;;10.44;83.82;101276.44;4982346;28;20054;-52
2021/10/13 08:35:09;;;;;;;18.58;12.18;;;;;;;10.49;82.54;101278.94;4989312;28;20050;-52
2021/10/13 08:37:37;;;;;;;20.52;11.63;;;;;;;10.46;83.36;101279.03;4990440;28;20054;-52
2021/10/13 08:40:06;;;;;;;21.10;12.18;;;;;;;10.54;83.09;101277.03;4994346;28;20050;-54
2021/10/13 08:42:33;;;;;;;19.23;11.85;;;;;;;10.57;81.89;101282.19;4980614;28;20507;-52
2021/10/13 08:44:59;;;;;;;19.08;11.80;;;;;;;10.60;80.98;101281.22;4995553;28;20050;-53
2021/10/13 08:47:26;;;;;;;17.92;10.55;;;;;;;10.61;80.81;101281.19;4985106;28;20077;-53
2021/10/13 08:49:53;;;;;;;18.45;11.20;;;;;;;10.69;80.94;101284.47;4988625;28;20072;-52
2021/10/13 08:52:20;;;;;;;17.25;11.27;;;;;;;10.73;80.60;101294.00;4994894;28;20107;-53
2021/10/13 08:54:46;;;;;;;18.73;11.27;;;;;;;10.79;80.64;101292.94;4988807;28;20046;-53
2021/10/13 08:57:23;;;;;;;18.23;11.40;;;;;;;10.90;81.12;101286.38;4992471;28;20677;-53
2021/10/13 08:59:51;;;;;;;17.75;12.13;;;;;;;11.09;80.48;101289.25;4984096;28;20046;-52
2021/10/13 09:02:41;;;;;;;20.30;12.02;;;;;;;11.18;80.15;101288.91;4991972;28;20050;-52
2021/10/13 09:05:16;;;;;;;19.42;11.73;;;;;;;11.27;79.64;101281.56;4991616;28;20084;-54
2021/10/13 09:07:53;;;;;;;20.10;12.32;;;;;;;11.29;79.85;101277.94;4988542;28;20038;-53
2021/10/13 09:10:52;;;;;;;18.02;11.50;;;;;;;11.19;78.97;101282.69;4982310;28;20164;-51
2021/10/13 09:13:18;;;;;;;18.70;11.65;;;;;;;11.11;80.27;101294.50;4995271;28;20046;-51
2021/10/13 09:15:48;;;;;;;20.25;12.18;;;;;;;11.00;80.96;101294.88;4991388;28;20054;-53
2021/10/13 09:18:15;;;;;;;19.88;12.65;;;;;;;10.93;81.62;101297.78;4992942;28;20064;-52
2021/10/13 09:20:42;;;;;;;35.28;13.65;;;;;;;10.88;82.04;101297.94;4990041;28;20072;-52
2021/10/13 09:23:15;;;;;;;17.50;11.85;;;;;;;10.96;81.24;101295.03;4992437;28;20147;-54
2021/10/13 09:25:58;;;;;;;17.63;10.93;;;;;;;11.12;81.04;101290.94;4991756;28;20053;-52
2021/10/13 09:28:25;;;;;;;19.02;11.60;;;;;;;11.28;80.00;101293.91;4988475;28;20054;-53
2021/10/13 09:30:51;;;;;;;17.98;11.02;;;;;;;11.36;79.71;101292.69;4981475;28;20049;-52
2021/10/13 09:33:19;;;;;;;16.95;11.68;;;;;;;11.47;79.14;101287.91;4988104;28;20216;-52
2021/10/13 09:35:50;;;;;;;16.85;11.50;;;;;;;11.59;77.95;101295.41;5001901;28;20050;-53
2021/10/13 09:38:22;;;;;;;15.63;10.48;;;;;;;11.67;77.12;101307.50;4985786;28;20070;-52
2021/10/13 09:40:57;;;;;;;19.23;10.48;;;;;;;11.70;76.82;101304.75;4991257;28;20042;-53
2021/10/13 09:43:37;;;;;;;17.63;11.38;;;;;;;11.75;77.17;101310.75;4990827;28;20046;-52
2021/10/13 09:46:12;;;;;;;18.17;10.77;;;;;;;11.71;76.97;101309.13;4990439;28;20056;-55
2021/10/13 09:48:42;;;;;;;15.20;10.85;;;;;;;11.79;77.77;101307.09;4986467;28;20049;-52
2021/10/13 09:51:15;;;;;;;18.27;11.95;;;;;;;12.16;77.06;101302.09;4985354;28;20134;-52
2021/10/13 09:53:42;;;;;;;17.60;10.25;;;;;;;12.53;75.41;101303.28;4991204;28;20064;-53
2021/10/13 09:56:29;;;;;;;17.92;10.65;;;;;;;12.82;74.32;101297.63;4986107;28;20149;-53
2021/10/13 09:59:15;;;;;;;15.65;9.07;;;;;;;13.10;70.55;101299.13;4990921;28;20050;-55
2021/10/13 10:01:47;;;;;;;10.63;7.57;;;;;;;13.80;65.59;101296.03;4988042;28;20089;-53
2021/10/13 10:04:17;;;;;;;9.18;6.57;;;;;;;14.40;64.44;101281.63;4996129;28;20061;-53
2021/10/13 10:06:48;;;;;;;16.85;7.55;;;;;;;15.20;60.83;101290.03;4989020;28;20050;-53
2021/10/13 10:09:18;;;;;;;10.02;5.70;;;;;;;14.90;58.27;101297.78;4992515;28;20050;-54
2021/10/13 10:11:46;;;;;;;8.68;6.10;;;;;;;14.23;60.48;101298.41;4985427;28;20045;-53
2021/10/13 10:14:33;;;;;;;11.60;6.53;;;;;;;13.64;64.30;101291.41;4987966;28;20081;-54
2021/10/13 10:17:01;;;;;;;10.23;7.30;;;;;;;13.42;65.10;101290.63;4986436;28;20046;-52
2021/10/13 10:19:29;;;;;;;9.65;7.15;;;;;;;13.31;65.16;101292.91;4992563;28;20141;-54
2021/10/13 10:22:06;;;;;;;8.30;6.43;;;;;;;13.17;66.16;101287.34;4982450;28;20339;-52
2021/10/13 10:24:34;;;;;;;7.80;5.60;;;;;;;13.21;67.12;101299.56;4985881;28;20771;-54
2021/10/13 10:27:23;;;;;;;8.82;5.50;;;;;;;13.09;64.24;101300.91;4991842;28;20046;-54
2021/10/13 10:30:08;;;;;;;8.10;4.63;;;;;;;12.69;65.08;101304.41;4968290;28;20383;-53
2021/10/13 10:32:42;;;;;;;7.60;5.65;;;;;;;12.45;66.35;101305.38;4981004;28;20060;-53
2021/10/13 10:35:15;;;;;;;7.68;4.97;;;;;;;12.19;68.08;101307.28;4995114;28;20045;-52
2021/10/13 10:37:44;;;;;;;14.00;7.40;;;;;;;11.97;69.85;101305.50;4985693;28;20169;-53
2021/10/13 10:40:21;;;;;;;11.13;6.57;;;;;;;11.84;70.75;101307.78;4991191;28;20064;-52
2021/10/13 10:42:52;;;;;;;18.67;7.50;;;;;;;11.75;70.68;101313.41;4988189;28;20049;-53
2021/10/13 10:45:25;;;;;;;19.42;6.25;;;;;;;11.66;70.46;101314.59;4989227;28;20056;-52
2021/10/13 10:48:01;;;;;;;8.70;4.95;;;;;;;11.56;70.96;101311.41;5000384;28;20065;-52
2021/10/13 10:50:30;;;;;;;7.45;4.57;;;;;;;11.62;70.98;101314.78;4998827;28;20057;-52
2021/10/13 10:53:31;;;;;;;9.77;5.07;;;;;;;11.62;71.19;101309.47;4981531;28;20054;-53
2021/10/13 10:56:30;;;;;;;7.55;4.72;;;;;;;11.62;71.19;101302.38;4999452;28;20053;-55
2021/10/13 10:59:01;;;;;;;9.30;4.95;;;;;;;11.82;71.47;101302.53;4987758;28;20431;-55
2021/10/13 11:01:28;;;;;;;8.13;4.75;;;;;;;12.12;70.34;101297.81;4978583;28;20449;-53
2021/10/13 11:03:55;;;;;;;10.75;5.20;;;;;;;12.41;68.86;101298.50;4984114;28;20053;-54
2021/10/13 11:06:24;;;;;;;12.43;5.30;;;;;;;12.74;67.75;101299.78;4990250;28;20050;-54
2021/10/13 11:09:06;;;;;;;22.45;13.50;;;;;;;13.13;65.42;101293.69;4981752;28;20057;-53
2021/10/13 11:11:39;;;;;;;19.30;13.80;;;;;;;13.52;65.45;101307.06;4981010;28;20046;-53
2021/10/13 11:14:26;;;;;;;7.53;5.32;;;;;;;13.92;61.61;101303.44;4994427;28;20049;-56
2021/10/13 11:16:58;;;;;;;8.73;4.82;;;;;;;14.06;61.30;101303.66;4985628;28;20046;-54
2021/10/13 11:19:28;;;;;;;12.45;6.70;;;;;;;14.08;60.47;101306.25;4995152;28;20481;-53
2021/10/13 11:22:06;;;;;;;;;;;;;;;13.94;60.00;101301.59;4978298;28;20073;-55
2021/10/13 11:24:35;;;;;;;7.50;3.92;;;;;;;13.66;60.67;101300.19;4989250;28;19925;-56
2021/10/13 11:27:02;;;;;;;6.95;4.50;;;;;;;13.54;61.11;101300.72;4984542;28;20516;-53
2021/10/13 11:29:31;;;;;;;10.60;5.93;;;;;;;13.42;62.65;101301.28;4990729;28;20053;-53